createdAt,value
2022-10-17T00:00:26.702Z,16.40
2022-10-17T00:03:19.527Z,15.20
2022-10-17T00:05:52.257Z,14.10
2022-10-17T00:08:24.767Z,16.30
2022-10-17T00:11:02.857Z,14.00
2022-10-17T00:13:35.756Z,15.80
2022-10-17T00:16:08.879Z,16.10
2022-10-17T00:18:42.515Z,15.30
2022-10-17T00:21:23.296Z,12.50
2022-10-17T00:23:57.221Z,14.80
2022-10-17T00:26:33.899Z,16.00
2022-10-17T00:29:07.190Z,14.50
2022-10-17T00:31:40.506Z,13.50
2022-10-17T00:34:13.451Z,13.90
2022-10-17T00:36:46.200Z,16.70
2022-10-17T00:39:18.806Z,14.10
2022-10-17T00:41:56.666Z,14.80
2022-10-17T00:44:34.934Z,15.20
2022-10-17T00:47:14.595Z,13.80
2022-10-17T00:49:47.866Z,16.70
2022-10-17T00:52:32.574Z,17.60
2022-10-17T00:55:20.039Z,14.40
2022-10-17T00:57:55.089Z,16.30
2022-10-17T01:00:30.927Z,16.30
2022-10-17T01:03:05.262Z,13.50
2022-10-17T01:05:39.268Z,12.70
2022-10-17T01:08:13.381Z,11.20
2022-10-17T01:11:08.760Z,13.00
2022-10-17T01:13:50.981Z,12.90
2022-10-17T01:16:57.764Z,13.00
2022-10-17T01:19:39.150Z,12.70
2022-10-17T01:22:26.203Z,14.00
2022-10-17T01:25:30.999Z,15.30
2022-10-17T01:31:18.457Z,12.60
2022-10-17T01:33:54.190Z,13.00
2022-10-17T01:36:50.629Z,12.40
2022-10-17T01:39:48.228Z,14.80
2022-10-17T01:42:40.615Z,13.90
2022-10-17T01:45:41.566Z,16.40
2022-10-17T01:48:25.088Z,13.30
2022-10-17T01:51:10.474Z,14.70
2022-10-17T01:53:50.019Z,13.10
2022-10-17T01:56:26.882Z,12.00
2022-10-17T01:59:05.359Z,13.30
2022-10-17T02:01:42.617Z,12.80
2022-10-17T02:04:16.826Z,12.40
2022-10-17T02:06:49.751Z,11.00
2022-10-17T02:09:28.108Z,12.50
2022-10-17T02:12:11.374Z,12.20
2022-10-17T02:15:04.460Z,14.80
2022-10-17T02:17:39.112Z,13.60
2022-10-17T02:20:13.796Z,14.50
2022-10-17T02:23:13.969Z,12.60
2022-10-17T02:25:56.191Z,14.40
2022-10-17T02:28:46.723Z,12.80
2022-10-17T02:31:26.129Z,17.60
2022-10-17T02:34:09.154Z,14.30
2022-10-17T02:36:48.776Z,17.10
2022-10-17T02:39:25.290Z,14.30
2022-10-17T02:42:14.409Z,13.60
2022-10-17T02:44:49.225Z,15.40
2022-10-17T02:47:35.491Z,10.60
2022-10-17T02:50:10.241Z,15.40
2022-10-17T02:53:00.299Z,12.20
2022-10-17T02:55:39.616Z,13.90
2022-10-17T02:58:21.368Z,14.90
2022-10-17T03:03:31.723Z,14.50
2022-10-17T03:06:09.638Z,13.70
2022-10-17T03:08:43.407Z,14.50
2022-10-17T03:11:16.816Z,13.80
2022-10-17T03:13:50.524Z,15.50
2022-10-17T03:16:24.409Z,15.20
2022-10-17T03:19:01.399Z,17.30
2022-10-17T03:21:37.262Z,15.50
2022-10-17T03:24:11.160Z,13.50
2022-10-17T03:29:21.022Z,12.60
2022-10-17T03:31:55.155Z,13.20
2022-10-17T03:34:29.107Z,12.70
2022-10-17T03:37:02.601Z,14.40
2022-10-17T03:39:36.647Z,17.30
2022-10-17T03:42:09.640Z,13.80
2022-10-17T03:49:56.698Z,16.20
2022-10-17T03:52:30.575Z,15.30
2022-10-17T03:55:04.552Z,14.80
2022-10-17T03:57:41.106Z,14.30
2022-10-17T04:00:19.600Z,14.90
2022-10-17T04:02:57.986Z,14.00
2022-10-17T04:05:32.949Z,16.70
2022-10-17T04:08:07.518Z,13.30
2022-10-17T04:13:43.373Z,20.00
2022-10-17T04:16:18.479Z,22.50
2022-10-17T04:19:02.223Z,19.00
2022-10-17T04:21:39.682Z,16.00
2022-10-17T04:24:14.795Z,27.30
2022-10-17T04:27:02.805Z,55.50
2022-10-17T04:29:37.730Z,52.00
2022-10-17T04:32:17.705Z,71.80
2022-10-17T04:34:57.042Z,84.70
2022-10-17T04:37:31.973Z,84.20
2022-10-17T04:40:05.798Z,64.60
2022-10-17T04:42:39.044Z,73.40
2022-10-17T04:45:12.720Z,76.70
2022-10-17T04:47:46.776Z,61.40
2022-10-17T04:50:20.244Z,45.70
2022-10-17T04:53:11.030Z,31.50
2022-10-17T04:55:44.411Z,35.60
2022-10-17T04:58:18.135Z,36.10
2022-10-17T05:00:51.886Z,30.10
2022-10-17T05:03:34.605Z,29.30
2022-10-17T05:06:13.607Z,32.20
2022-10-17T05:08:48.763Z,33.90
2022-10-17T05:11:30.104Z,31.40
2022-10-17T05:14:05.808Z,31.30
2022-10-17T05:16:39.583Z,33.20
2022-10-17T05:19:14.829Z,26.70
2022-10-17T05:21:53.286Z,28.90
2022-10-17T05:24:26.839Z,29.00
2022-10-17T05:27:03.149Z,45.30
2022-10-17T05:29:40.230Z,38.00
2022-10-17T05:32:29.315Z,43.30
2022-10-17T05:35:04.737Z,29.10
2022-10-17T05:37:37.870Z,29.70
2022-10-17T05:40:12.019Z,31.90
2022-10-17T05:42:55.700Z,33.60
2022-10-17T05:48:12.661Z,23.50
2022-10-17T05:50:45.241Z,24.80
2022-10-17T05:53:21.731Z,29.30
2022-10-17T05:56:03.565Z,39.20
2022-10-17T05:58:49.790Z,50.70
2022-10-17T06:01:35.051Z,26.40
2022-10-17T06:04:08.352Z,28.90
2022-10-17T06:06:42.063Z,34.00
2022-10-17T06:09:15.461Z,36.90
2022-10-17T06:11:52.171Z,35.80
2022-10-17T06:14:26.013Z,32.90
2022-10-17T06:17:02.891Z,37.40
2022-10-17T06:19:36.229Z,27.10
2022-10-17T06:22:09.195Z,26.00
2022-10-17T06:24:42.904Z,24.90
2022-10-17T06:27:17.340Z,36.70
2022-10-17T06:29:51.837Z,35.50
2022-10-17T06:32:25.574Z,32.80
2022-10-17T06:34:59.578Z,28.90
2022-10-17T06:37:38.213Z,31.70
2022-10-17T06:40:17.779Z,31.00
2022-10-17T06:42:51.675Z,33.20
2022-10-17T06:45:48.984Z,26.20
2022-10-17T06:48:37.490Z,29.20
2022-10-17T06:51:21.592Z,34.10
2022-10-17T06:54:00.619Z,31.90
2022-10-17T06:57:04.350Z,36.30
2022-10-17T07:00:00.653Z,31.10
2022-10-17T07:02:44.503Z,38.80
2022-10-17T07:05:19.760Z,31.20
2022-10-17T07:07:53.033Z,27.90
2022-10-17T07:10:25.795Z,41.10
2022-10-17T07:12:58.509Z,34.80
2022-10-17T07:15:32.955Z,38.60
2022-10-17T07:18:06.156Z,38.30
2022-10-17T07:20:40.733Z,42.90
2022-10-17T07:23:14.074Z,39.00
2022-10-17T07:25:47.254Z,37.40
2022-10-17T07:28:24.438Z,33.00
2022-10-17T07:30:58.606Z,42.00
2022-10-17T07:33:31.878Z,45.60
2022-10-17T07:36:05.787Z,40.70
2022-10-17T07:38:40.259Z,37.10
2022-10-17T07:41:19.230Z,40.50
2022-10-17T07:43:57.812Z,53.20
2022-10-17T07:46:38.787Z,54.50
2022-10-17T07:49:12.118Z,57.40
2022-10-17T07:54:20.019Z,51.10
2022-10-17T07:56:53.003Z,57.10
2022-10-17T07:59:25.975Z,44.40
2022-10-17T08:02:00.032Z,44.20
2022-10-17T08:04:33.101Z,39.60
2022-10-17T08:07:18.543Z,40.40
2022-10-17T08:09:57.220Z,45.70
2022-10-17T08:12:33.186Z,39.00
2022-10-17T08:15:06.498Z,41.90
2022-10-17T08:17:40.234Z,36.20
2022-10-17T08:20:13.508Z,35.80
2022-10-17T08:22:53.281Z,33.80
2022-10-17T08:25:26.331Z,22.50
2022-10-17T08:27:59.944Z,27.00
2022-10-17T08:30:32.966Z,23.40
2022-10-17T08:33:06.148Z,19.30
2022-10-17T08:35:39.665Z,20.90
2022-10-17T08:38:13.504Z,23.30
2022-10-17T08:40:50.731Z,22.10
2022-10-17T08:43:23.164Z,18.20
2022-10-17T08:46:04.906Z,19.60
2022-10-17T08:48:45.628Z,18.60
2022-10-17T08:51:26.907Z,19.80
2022-10-17T08:54:12.657Z,18.40
2022-10-17T08:56:51.311Z,19.70
2022-10-17T08:59:30.458Z,16.90
2022-10-17T09:02:29.506Z,16.80
2022-10-17T09:05:23.897Z,13.90
2022-10-17T09:08:21.012Z,21.60
2022-10-17T09:11:00.619Z,15.40
2022-10-17T09:14:07.952Z,11.40
2022-10-17T09:17:20.257Z,14.60
2022-10-17T09:20:22.955Z,13.10
2022-10-17T09:23:46.437Z,14.00
2022-10-17T09:26:19.846Z,11.00
2022-10-17T09:28:59.907Z,14.00
2022-10-17T09:31:38.772Z,12.50
2022-10-17T09:34:13.811Z,8.70
2022-10-17T09:36:46.671Z,12.00
2022-10-17T09:39:27.077Z,10.60
2022-10-17T09:42:05.040Z,12.00
2022-10-17T09:44:44.495Z,9.60
2022-10-17T09:47:22.830Z,10.60
2022-10-17T09:49:56.014Z,11.00
2022-10-17T09:52:42.512Z,13.30
2022-10-17T09:55:29.132Z,12.00
2022-10-17T09:58:07.628Z,18.40
2022-10-17T10:00:48.119Z,11.10
2022-10-17T10:03:25.424Z,11.10
2022-10-17T10:06:19.405Z,13.60
2022-10-17T10:09:06.004Z,12.30
2022-10-17T10:11:56.233Z,12.50
2022-10-17T10:14:40.323Z,10.60
2022-10-17T10:17:58.244Z,11.30
2022-10-17T10:21:05.513Z,10.60
2022-10-17T10:23:42.108Z,9.60
2022-10-17T10:26:28.315Z,10.40
2022-10-17T10:29:03.670Z,10.70
2022-10-17T10:31:41.988Z,9.90
2022-10-17T10:34:36.322Z,11.50
2022-10-17T10:37:21.546Z,9.30
2022-10-17T10:40:10.754Z,12.30
2022-10-17T10:43:01.283Z,13.80
2022-10-17T10:45:48.429Z,9.60
2022-10-17T10:48:26.227Z,10.20
2022-10-17T10:51:22.385Z,9.60
2022-10-17T10:54:13.335Z,18.30
2022-10-17T10:56:57.022Z,12.00
2022-10-17T10:59:50.096Z,9.50
2022-10-17T11:02:40.840Z,10.70
2022-10-17T11:05:19.211Z,12.20
2022-10-17T11:08:20.767Z,13.00
2022-10-17T11:11:24.543Z,10.90
2022-10-17T11:14:36.355Z,13.50
2022-10-17T11:17:20.023Z,13.90
2022-10-17T11:20:20.324Z,12.10
2022-10-17T11:22:58.201Z,17.60
2022-10-17T11:25:51.960Z,11.60
2022-10-17T11:28:26.990Z,13.90
2022-10-17T11:31:12.016Z,11.40
2022-10-17T11:34:00.181Z,11.20
2022-10-17T11:36:48.194Z,17.70
2022-10-17T11:39:48.992Z,11.30
2022-10-17T11:42:28.126Z,12.90
2022-10-17T11:45:22.701Z,13.10
2022-10-17T11:48:03.812Z,13.10
2022-10-17T11:53:42.760Z,11.00
2022-10-17T11:56:19.252Z,26.90
2022-10-17T11:59:24.280Z,15.20
2022-10-17T12:02:07.479Z,16.30
2022-10-17T12:05:02.994Z,12.70
2022-10-17T12:08:30.606Z,11.90
2022-10-17T12:11:39.286Z,52.80
2022-10-17T12:14:47.234Z,15.90
2022-10-17T12:17:39.891Z,20.60
2022-10-17T12:23:09.468Z,18.40
2022-10-17T12:26:03.288Z,16.10
2022-10-17T12:28:50.445Z,13.60
2022-10-17T12:31:32.506Z,11.80
2022-10-17T12:34:18.947Z,27.00
2022-10-17T12:36:51.918Z,14.40
2022-10-17T12:39:43.930Z,19.50
2022-10-17T12:45:44.543Z,11.10
2022-10-17T12:48:36.395Z,28.90
2022-10-17T12:54:18.142Z,13.10
2022-10-17T12:56:52.009Z,40.80
2022-10-17T12:59:34.885Z,10.10
2022-10-17T13:02:14.521Z,14.20
2022-10-17T13:04:47.224Z,17.50
2022-10-17T13:07:25.365Z,17.20
2022-10-17T13:09:58.495Z,12.50
2022-10-17T13:12:31.657Z,16.80
2022-10-17T13:15:09.172Z,12.40
2022-10-17T13:17:43.779Z,18.40
2022-10-17T13:20:30.399Z,17.40
2022-10-17T13:23:06.016Z,11.50
2022-10-17T13:25:39.593Z,13.20
2022-10-17T13:28:15.742Z,13.60
2022-10-17T13:30:49.967Z,11.60
2022-10-17T13:33:42.740Z,16.20
2022-10-17T13:36:20.761Z,13.00
2022-10-17T13:38:53.675Z,15.60
2022-10-17T13:41:36.641Z,12.00
2022-10-17T13:44:26.182Z,13.40
2022-10-17T13:46:59.005Z,21.10
2022-10-17T13:49:44.579Z,14.60
2022-10-17T13:52:23.014Z,13.60
2022-10-17T13:54:56.429Z,14.10
2022-10-17T13:57:32.851Z,13.10
2022-10-17T14:00:19.085Z,11.70
2022-10-17T14:02:51.726Z,10.30
2022-10-17T14:05:24.415Z,13.00
2022-10-17T14:08:11.950Z,17.10
2022-10-17T14:10:47.168Z,11.10
2022-10-17T14:13:29.024Z,14.60
2022-10-17T14:16:04.583Z,16.60
2022-10-17T14:18:40.911Z,14.10
2022-10-17T14:21:43.971Z,15.80
2022-10-17T14:24:26.230Z,18.10
2022-10-17T14:27:02.536Z,16.60
2022-10-17T14:29:54.084Z,19.60
2022-10-17T14:32:26.590Z,16.80
2022-10-17T14:35:18.808Z,15.00
2022-10-17T14:37:59.712Z,20.10
2022-10-17T14:40:33.756Z,18.70
2022-10-17T14:43:08.148Z,19.90
2022-10-17T14:45:42.221Z,21.40
2022-10-17T14:48:18.723Z,22.40
2022-10-17T14:51:13.117Z,19.70
2022-10-17T14:54:05.044Z,20.50
2022-10-17T14:56:43.553Z,19.40
2022-10-17T14:59:30.125Z,18.20
2022-10-17T15:02:13.286Z,22.00
2022-10-17T15:04:46.084Z,27.10
2022-10-17T15:07:21.413Z,21.40
2022-10-17T15:09:55.178Z,31.70
2022-10-17T15:12:29.119Z,29.30
2022-10-17T15:15:02.039Z,24.80
2022-10-17T15:17:36.257Z,36.40
2022-10-17T15:20:19.796Z,31.10
2022-10-17T15:22:53.057Z,32.20
2022-10-17T15:25:26.181Z,31.80
2022-10-17T15:27:59.842Z,30.00
2022-10-17T15:30:36.339Z,34.70
2022-10-17T15:33:08.987Z,45.10
2022-10-17T15:35:43.935Z,36.50
2022-10-17T15:38:20.121Z,37.80
2022-10-17T15:40:52.721Z,24.00
2022-10-17T15:43:25.342Z,25.90
2022-10-17T15:45:57.887Z,23.50
2022-10-17T15:48:32.843Z,20.30
2022-10-17T15:51:05.838Z,52.90
2022-10-17T15:53:39.320Z,62.40
2022-10-17T15:56:26.963Z,76.50
2022-10-17T15:59:00.934Z,113.20
2022-10-17T16:01:35.455Z,126.50
2022-10-17T16:04:08.191Z,160.30
2022-10-17T16:06:40.674Z,167.80
2022-10-17T16:09:13.548Z,157.80
2022-10-17T16:11:47.053Z,163.30
2022-10-17T16:14:19.888Z,167.70
2022-10-17T16:16:52.254Z,150.90
2022-10-17T16:19:26.711Z,146.00
2022-10-17T16:22:04.339Z,103.20
2022-10-17T16:24:37.055Z,87.50
2022-10-17T16:27:10.252Z,90.80
2022-10-17T16:29:43.101Z,46.50
2022-10-17T16:32:15.594Z,66.30
2022-10-17T16:34:48.410Z,65.50
2022-10-17T16:37:21.002Z,78.00
2022-10-17T16:39:54.036Z,66.90
2022-10-17T16:42:27.112Z,50.50
2022-10-17T16:45:00.092Z,47.10
2022-10-17T16:47:33.284Z,50.50
2022-10-17T16:50:06.533Z,51.40
2022-10-17T16:52:39.662Z,52.10
2022-10-17T16:55:13.028Z,54.50
2022-10-17T16:57:46.460Z,50.00
2022-10-17T17:00:26.366Z,43.40
2022-10-17T17:03:01.316Z,44.30
2022-10-17T17:05:33.854Z,39.70
2022-10-17T17:08:09.115Z,38.20
2022-10-17T17:10:51.565Z,37.80
2022-10-17T17:13:24.400Z,33.80
2022-10-17T17:16:08.544Z,33.00
2022-10-17T17:18:43.131Z,24.30
2022-10-17T17:21:17.032Z,34.60
2022-10-17T17:23:49.717Z,37.60
2022-10-17T17:26:24.839Z,36.90
2022-10-17T17:29:01.804Z,33.30
2022-10-17T17:31:36.642Z,38.40
2022-10-17T17:34:10.302Z,29.70
2022-10-17T17:36:45.378Z,28.30
2022-10-17T17:39:19.090Z,31.00
2022-10-17T17:41:51.879Z,32.70
2022-10-17T17:44:29.345Z,30.30
2022-10-17T17:47:02.702Z,32.40
2022-10-17T17:49:35.918Z,28.70
2022-10-17T17:52:10.330Z,28.20
2022-10-17T17:54:43.895Z,31.50
2022-10-17T17:57:16.724Z,27.90
2022-10-17T17:59:50.132Z,31.70
2022-10-17T18:02:22.752Z,33.30
2022-10-17T18:04:56.788Z,27.90
2022-10-17T18:07:30.954Z,26.70
2022-10-17T18:10:09.601Z,32.50
2022-10-17T18:12:46.240Z,28.30
2022-10-17T18:15:19.438Z,29.60
2022-10-17T18:17:52.341Z,34.30
2022-10-17T18:20:25.489Z,30.60
2022-10-17T18:23:01.889Z,29.40
2022-10-17T18:25:39.075Z,30.90
2022-10-17T18:28:15.669Z,29.90
2022-10-17T18:30:49.513Z,31.80
2022-10-17T18:33:23.184Z,37.60
2022-10-17T18:36:06.952Z,38.00
2022-10-17T18:38:40.719Z,30.90
2022-10-17T18:41:16.226Z,35.90
2022-10-17T18:43:50.394Z,35.90
2022-10-17T18:46:26.250Z,32.50
2022-10-17T18:48:59.579Z,35.20
2022-10-17T18:51:33.622Z,40.70
2022-10-17T18:54:09.670Z,38.70
2022-10-17T18:56:42.921Z,36.70
2022-10-17T18:59:19.479Z,33.30
2022-10-17T19:01:52.801Z,38.30
2022-10-17T19:04:26.168Z,38.10
2022-10-17T19:07:00.134Z,40.90
2022-10-17T19:09:32.960Z,40.80
2022-10-17T19:12:06.524Z,40.60
2022-10-17T19:14:43.228Z,40.10
2022-10-17T19:17:20.329Z,44.20
2022-10-17T19:19:53.916Z,36.60
2022-10-17T19:22:39.178Z,40.60
2022-10-17T19:25:12.306Z,37.60
2022-10-17T19:27:45.449Z,41.30
2022-10-17T19:30:18.962Z,39.40
2022-10-17T19:32:54.494Z,42.00
2022-10-17T19:35:28.259Z,38.50
2022-10-17T19:38:06.838Z,39.10
2022-10-17T19:40:43.850Z,36.80
2022-10-17T19:43:16.975Z,40.40
2022-10-17T19:46:00.331Z,40.30
2022-10-17T19:48:37.384Z,36.10
2022-10-17T19:51:13.006Z,36.30
2022-10-17T19:53:49.889Z,32.90
2022-10-17T19:56:23.276Z,32.10
2022-10-17T19:58:57.646Z,35.80
2022-10-17T20:01:36.201Z,34.40
2022-10-17T20:04:14.364Z,57.60
2022-10-17T20:06:47.768Z,49.40
2022-10-17T20:09:20.370Z,54.70
2022-10-17T20:11:52.808Z,35.20
2022-10-17T20:14:25.520Z,36.20
2022-10-17T20:17:00.525Z,33.20
2022-10-17T20:19:34.247Z,32.30
2022-10-17T20:22:06.918Z,42.60
2022-10-17T20:24:40.238Z,34.10
2022-10-17T20:27:13.397Z,29.40
2022-10-17T20:29:48.487Z,29.10
2022-10-17T20:32:22.232Z,34.50
2022-10-17T20:35:00.393Z,35.40
2022-10-17T20:37:42.591Z,36.20
2022-10-17T20:40:34.021Z,31.00
2022-10-17T20:43:12.358Z,28.20
2022-10-17T20:45:52.016Z,29.90
2022-10-17T20:48:30.075Z,28.60
2022-10-17T20:51:10.732Z,27.80
2022-10-17T20:53:49.416Z,28.20
2022-10-17T20:56:31.712Z,30.80
2022-10-17T20:59:14.440Z,30.60
2022-10-17T21:01:56.446Z,32.70
2022-10-17T21:04:45.918Z,32.10
2022-10-17T21:07:22.861Z,33.00
2022-10-17T21:10:00.260Z,34.10
2022-10-17T21:12:53.080Z,37.40
2022-10-17T21:15:29.664Z,34.40
2022-10-17T21:18:02.538Z,37.50
2022-10-17T21:20:36.140Z,35.90
2022-10-17T21:23:11.390Z,35.10
2022-10-17T21:25:48.200Z,29.30
2022-10-17T21:28:21.438Z,29.40
2022-10-17T21:31:06.828Z,34.10
2022-10-17T21:33:40.729Z,27.40
2022-10-17T21:36:16.901Z,30.30
2022-10-17T21:38:52.636Z,35.90
2022-10-17T21:41:34.257Z,35.80
2022-10-17T21:44:10.077Z,37.00
2022-10-17T21:46:44.515Z,35.60
2022-10-17T21:49:24.560Z,35.90
2022-10-17T21:52:04.706Z,36.00
2022-10-17T21:54:38.155Z,33.60
2022-10-17T21:57:10.858Z,32.80
2022-10-17T21:59:43.401Z,31.40
2022-10-17T22:02:16.789Z,36.30
2022-10-17T22:04:49.697Z,35.70
2022-10-17T22:07:26.531Z,26.90
2022-10-17T22:10:04.632Z,33.20
2022-10-17T22:12:37.847Z,29.30
2022-10-17T22:15:15.836Z,26.10
2022-10-17T22:17:48.919Z,25.30
2022-10-17T22:20:21.637Z,25.40
2022-10-17T22:23:00.378Z,22.80
2022-10-17T22:25:57.401Z,24.30
2022-10-17T22:28:31.597Z,21.10
2022-10-17T22:31:04.330Z,23.70
2022-10-17T22:33:39.265Z,22.90
2022-10-17T22:36:16.919Z,22.30
2022-10-17T22:38:49.944Z,21.30
2022-10-17T22:41:23.797Z,25.00
2022-10-17T22:43:57.330Z,24.80
2022-10-17T22:46:30.997Z,21.40
2022-10-17T22:49:04.407Z,23.10
2022-10-17T22:51:42.770Z,22.30
2022-10-17T22:54:15.962Z,20.10
2022-10-17T22:56:55.900Z,24.70
2022-10-17T22:59:30.009Z,27.50
2022-10-17T23:02:03.913Z,23.20
2022-10-17T23:04:37.788Z,23.60
2022-10-17T23:07:15.223Z,22.60
2022-10-17T23:09:49.819Z,25.20
2022-10-17T23:12:24.017Z,24.50
2022-10-17T23:14:57.980Z,26.50
2022-10-17T23:17:31.134Z,22.20
2022-10-17T23:20:03.653Z,23.10
2022-10-17T23:22:44.816Z,20.90
2022-10-17T23:25:19.221Z,21.10
2022-10-17T23:27:54.736Z,21.80
2022-10-17T23:30:28.763Z,25.40
2022-10-17T23:33:05.861Z,21.20
2022-10-17T23:35:39.370Z,23.40
2022-10-17T23:38:12.639Z,22.70
2022-10-17T23:40:56.266Z,20.90
2022-10-17T23:43:34.678Z,23.10
2022-10-17T23:46:08.368Z,21.30
2022-10-17T23:48:41.157Z,21.20
2022-10-17T23:51:14.130Z,21.80
2022-10-17T23:53:52.470Z,20.60
2022-10-17T23:56:25.879Z,22.90
2022-10-17T23:58:59.005Z,24.50
